Nearby METAR Reports

 

KMQS - Coatesville, Pennsylvania, USA
Distance from station: NW 12mi, 19km
Updated: Fri, 22-Oct-2021 11:55pm EDT
Clear
Clear
 Wind from calm
Wind: Calm
Temperature: 48°F , 9°C
Dew Point: 46°F , 8°C
Humidity: 94%
Barometer: 29.96 inHg , 1014.6 hPa
Clouds: Clear
Visibility: 10 miles , 16 km
2021/10/23 03:55 KMQS 230355Z AUTO 00000KT 10SM CLR 09/08 A2996 RMK AO2
KOQN - West Chester, Pennsylvania, USA
Distance from station: NE 13mi, 21km
Updated: Sat, 23-Oct-2021 12:15am EDT
Clear
Clear
 Wind from calm
Wind: Calm
Temperature: 50°F , 10°C
Dew Point: 46°F , 8°C
Humidity: 88%
Barometer: 29.94 inHg , 1013.9 hPa
Clouds: Clear
Visibility: 10 miles , 16 km
2021/10/23 04:15 KOQN 230415Z AUTO 00000KT 10SM CLR 10/08 A2994 RMK AO2
 
KILG - Wilmington, Delaware, USA
Distance from station: SSE 14mi, 23km
Updated: Fri, 22-Oct-2021 11:51pm EDT
Clear
Clear
 Wind from NW
Wind: NW 6 mph , 9 km/h
Temperature: 52°F , 11°C
Dew Point: 46°F , 8°C
Humidity: 82%
Barometer: 29.95 inHg , 1014.2 hPa
Clouds: Clear
Visibility: 10 miles , 16 km
2021/10/23 03:51 KILG 230351Z 31005KT 10SM CLR 11/08 A2995 RMK AO2 SLP141 T01060083
KPHL - Philadelphia, Pennsylvania, USA
Distance from station: E 27mi, 43km
Updated: Fri, 22-Oct-2021 11:54pm EDT
Few Clouds
Few Clouds
 Wind from NNW
Wind: NNW 6 mph , 9 km/h
Temperature: 55°F , 13°C
Dew Point: 48°F , 9°C
Humidity: 77%
Barometer: 29.94 inHg , 1013.9 hPa
Clouds: Few Clouds
Visibility: 10 miles , 16 km
Cloud details: Few Clouds 9000 ft
Few Clouds 25000 ft
2021/10/23 03:54 KPHL 230354Z 33005KT 10SM FEW090 FEW250 13/09 A2994 RMK AO2 SLP138 T01330089
 
KPTW - Pottstown, Pennsylvania, USA
Distance from station: NNE 29mi, 47km
Updated: Fri, 22-Oct-2021 11:54pm EDT
Mist, Clear
Mist, Clear
 Wind from calm
Wind: Calm
Temperature: 46°F , 8°C
Dew Point: 46°F , 8°C
Humidity: 100%
Barometer: 29.96 inHg , 1014.6 hPa
Summary: Mist
Clouds: Clear
Visibility: 6 miles , 10 km
2021/10/23 03:54 KPTW 230354Z AUTO 00000KT 6SM BR CLR 08/08 A2996 RMK AO2 SLP143 T00830078
KLOM - Philly Wings F, Pennsylvania, USA
Distance from station: NE 32mi, 52km
Updated: Fri, 22-Oct-2021 9:35am EDT
NOT Current
Clear
Clear
 Wind from W
Wind: W 7 mph , 11 km/h
Temperature: 63°F , 17°C
Dew Point: 50°F , 10°C
Humidity: 64%
Barometer: 29.94 inHg , 1013.9 hPa
Clouds: Clear
Visibility: 10 miles , 16 km
2021/10/22 13:35 KLOM 221335Z AUTO 28006KT 10SM CLR 17/10 A2994 RMK AO2 T01680098
 
KAPG - Aberdeen/Phillip, Maryland, USA
Distance from station: SW 34mi, 55km
Updated: Fri, 22-Oct-2021 11:58pm EDT
Clear
Clear
 Wind from calm
Wind: Calm
Temperature: 50°F , 10°C
Dew Point: 50°F , 10°C
Humidity: 100%
Barometer: 29.94 inHg , 1013.9 hPa
Clouds: Clear
Visibility: 7 miles , 11 km
2021/10/23 03:58 KAPG 230358Z AUTO 00000KT 7SM R22/5500FT CLR 10/10 A2994 RMK AO2 LTG DSNT E-SE SLP142 T00980097 $
KLNS - Lancaster, Pennsylvania, USA
Distance from station: WNW 35mi, 57km
Updated: Fri, 22-Oct-2021 11:53pm EDT
Clear
Clear
 Wind from calm
Wind: Calm
Temperature: 52°F , 11°C
Dew Point: 46°F , 8°C
Humidity: 82%
Barometer: 29.95 inHg , 1014.2 hPa
Clouds: Clear
Visibility: 10 miles , 16 km
2021/10/23 03:53 KLNS 230353Z AUTO 00000KT 10SM CLR 11/08 A2995 RMK AO2 SLP140 T01060083
 
KRDG - Reading, Pennsylvania, USA
Distance from station: NNW 38mi, 62km
Updated: Fri, 22-Oct-2021 11:54pm EDT
Clear
Clear
 Wind from calm
Wind: Calm
Temperature: 52°F , 11°C
Dew Point: 48°F , 9°C
Humidity: 88%
Barometer: 29.94 inHg , 1013.9 hPa
Clouds: Clear
Visibility: 10 miles , 16 km
2021/10/23 03:54 KRDG 230354Z AUTO 00000KT 10SM CLR 11/09 A2994 RMK AO2 SLP143 T01110094
KPNE - Philadelphia/Ne, Pennsylvania, USA
Distance from station: ENE 42mi, 67km
Updated: Fri, 22-Oct-2021 11:54pm EDT
Clear
Clear
 Wind from calm
Wind: Calm
Temperature: 54°F , 12°C
Dew Point: 48°F , 9°C
Humidity: 82%
Barometer: 29.95 inHg , 1014.2 hPa
Clouds: Clear
Visibility: 10 miles , 16 km
2021/10/23 03:54 KPNE 230354Z AUTO 00000KT 10SM CLR 12/09 A2995 RMK AO2 SLP141 T01220089
 
KCKZ - Perkasie, Pennsylvania, USA
Distance from station: NNE 45mi, 72km
Updated: Fri, 22-Oct-2021 11:55pm EDT
Clear
Clear
 Wind from NE
Wind: NE 3 mph , 6 km/h
Temperature: 48°F , 9°C
Dew Point: 48°F , 9°C
Humidity: 100%
Barometer: 29.95 inHg , 1014.2 hPa
Clouds: Clear
Visibility: 10 miles , 16 km
2021/10/23 03:55 KCKZ 230355Z AUTO 04003KT 10SM CLR 09/09 A2995 RMK AO2
KUKT - Quakertown Arp, Pennsylvania, USA
Distance from station: NNE 45mi, 73km
Updated: Sat, 23-Oct-2021 12:15am EDT
Clear
Clear
 Wind from calm
Wind: Calm
Temperature: 48°F , 9°C
Dew Point: 48°F , 9°C
Humidity: 100%
Barometer: 29.94 inHg , 1013.9 hPa
Clouds: Clear
Visibility: 10 miles , 16 km
2021/10/23 04:15 KUKT 230415Z AUTO 00000KT 10SM CLR 09/09 A2994 RMK A01
 
KDYL - Doylestown, Pennsylvania, USA
Distance from station: NE 47mi, 76km
Updated: Fri, 22-Oct-2021 11:54pm EDT
Clear
Clear
 Wind from calm
Wind: Calm
Temperature: 50°F , 10°C
Dew Point: 46°F , 8°C
Humidity: 88%
Barometer: 29.93 inHg , 1013.5 hPa
Clouds: Clear
Visibility: 10 miles , 16 km
2021/10/23 03:54 KDYL 230354Z AUTO 00000KT 10SM CLR 10/08 A2993 RMK AO2 SLP136 T01000078
KMIV - Millville, New Jersey, USA
Distance from station: SE 48mi, 77km
Updated: Fri, 22-Oct-2021 11:54pm EDT
Clear
Clear
 Wind from calm
Wind: Calm
Temperature: 48°F , 9°C
Dew Point: 46°F , 8°C
Humidity: 94%
Barometer: 29.93 inHg , 1013.5 hPa
Clouds: Clear
Visibility: 10 miles , 16 km
2021/10/23 03:54 KMIV 230354Z AUTO 00000KT 10SM CLR 09/08 A2993 RMK AO2 SLP135 T00890078
 
KVAY - Mount Holly, New Jersey, USA
Distance from station: E 48mi, 78km
Updated: Fri, 22-Oct-2021 11:54pm EDT
Clear
Clear
 Wind from calm
Wind: Calm
Temperature: 50°F , 10°C
Dew Point: 46°F , 8°C
Humidity: 88%
Barometer: 29.94 inHg , 1013.9 hPa
Clouds: Clear
Visibility: 10 miles , 16 km
2021/10/23 03:54 KVAY 230354Z AUTO 00000KT 10SM CLR 10/08 A2994 RMK AO2 SLP137 T01000083